createdAt,value
2019-02-19T00:00:42.811Z,99581.67
2019-02-19T00:03:18.663Z,99581.67
2019-02-19T00:05:54.514Z,99579.50
2019-02-19T00:08:30.373Z,99578.30
2019-02-19T00:11:06.113Z,99580.52
2019-02-19T00:13:41.972Z,99578.05
2019-02-19T00:16:17.718Z,99576.13
2019-02-19T00:18:53.576Z,99567.66
2019-02-19T00:21:29.442Z,99579.85
2019-02-19T00:24:05.390Z,99575.64
2019-02-19T00:26:41.246Z,99580.05
2019-02-19T00:29:16.989Z,99582.03
2019-02-19T00:31:52.848Z,99583.91
2019-02-19T00:34:28.702Z,99583.20
2019-02-19T00:37:04.556Z,99589.69
2019-02-19T00:39:40.414Z,99587.71
2019-02-19T00:42:16.671Z,99587.41
2019-02-19T00:44:52.532Z,99583.23
2019-02-19T00:47:28.389Z,99585.28
2019-02-19T00:50:05.915Z,99578.59
2019-02-19T00:52:41.737Z,99582.56
2019-02-19T00:55:17.593Z,99580.33
2019-02-19T00:57:53.438Z,99574.81
2019-02-19T01:00:29.291Z,99578.55
2019-02-19T01:03:04.998Z,99575.48
2019-02-19T01:05:40.786Z,99574.80
2019-02-19T01:08:16.656Z,99565.39
2019-02-19T01:10:52.504Z,99565.89
2019-02-19T01:13:28.351Z,99564.46
2019-02-19T01:16:04.215Z,99569.42
2019-02-19T01:18:40.072Z,99560.63
2019-02-19T01:21:15.918Z,99564.23
2019-02-19T01:23:51.776Z,99562.83
2019-02-19T01:26:27.520Z,99559.37
2019-02-19T01:29:03.370Z,99559.33
2019-02-19T01:31:39.132Z,99555.86
2019-02-19T01:34:14.988Z,99553.77
2019-02-19T01:36:50.846Z,99551.74
2019-02-19T01:39:26.683Z,99559.25
2019-02-19T01:42:02.446Z,99554.77
2019-02-19T01:44:38.311Z,99549.00
2019-02-19T01:47:14.160Z,99549.28
2019-02-19T01:49:50.011Z,99545.61
2019-02-19T01:52:25.753Z,99550.57
2019-02-19T01:55:01.608Z,99556.88
2019-02-19T01:57:37.353Z,99558.72
2019-02-19T02:00:13.787Z,99557.27
2019-02-19T02:02:49.595Z,99552.48
2019-02-19T02:05:25.435Z,99552.16
2019-02-19T02:08:02.306Z,99547.36
2019-02-19T02:10:38.480Z,99548.70
2019-02-19T02:13:14.333Z,99547.98
2019-02-19T02:15:50.386Z,99547.12
2019-02-19T02:18:26.253Z,99538.13
2019-02-19T02:21:02.091Z,99541.73
2019-02-19T02:23:37.956Z,99542.78
2019-02-19T02:26:13.731Z,99542.64
2019-02-19T02:28:49.552Z,99545.63
2019-02-19T02:31:25.401Z,99542.57
2019-02-19T02:34:01.202Z,99537.78
2019-02-19T02:36:37.322Z,99540.23
2019-02-19T02:39:14.612Z,99544.26
2019-02-19T02:41:50.464Z,99533.33
2019-02-19T02:44:26.309Z,99525.52
2019-02-19T02:47:02.061Z,99526.73
2019-02-19T02:49:37.920Z,99519.53
2019-02-19T02:52:13.711Z,99524.20
2019-02-19T02:54:49.530Z,99512.72
2019-02-19T02:57:26.404Z,99520.77
2019-02-19T03:00:02.377Z,99526.61
2019-02-19T03:02:40.473Z,99521.13
2019-02-19T03:05:16.421Z,99522.73
2019-02-19T03:07:54.214Z,99524.94
2019-02-19T03:10:30.090Z,99521.72
2019-02-19T03:13:06.038Z,99530.09
2019-02-19T03:15:41.781Z,99527.20
2019-02-19T03:18:17.640Z,99530.29
2019-02-19T03:20:53.499Z,99528.16
2019-02-19T03:23:29.453Z,99525.16
2019-02-19T03:26:05.340Z,99521.30
2019-02-19T03:28:41.265Z,99519.45
2019-02-19T03:31:17.116Z,99519.88
2019-02-19T03:33:52.981Z,99515.52
2019-02-19T03:36:28.825Z,99519.98
2019-02-19T03:39:05.507Z,99519.52
2019-02-19T03:41:41.350Z,99524.05
2019-02-19T03:44:17.203Z,99519.41
2019-02-19T03:46:52.930Z,99518.82
2019-02-19T03:49:28.705Z,99521.77
2019-02-19T03:52:04.577Z,99523.02
2019-02-19T03:54:40.424Z,99518.62
2019-02-19T03:57:16.265Z,99522.27
2019-02-19T03:59:52.014Z,99528.77
2019-02-19T04:02:27.884Z,99525.75
2019-02-19T04:05:03.730Z,99526.86
2019-02-19T04:07:39.588Z,99521.20
2019-02-19T04:10:15.461Z,99517.90
2019-02-19T04:12:51.291Z,99518.36
2019-02-19T04:15:27.082Z,99513.20
2019-02-19T04:18:02.897Z,99512.84
2019-02-19T04:20:38.657Z,99510.22
2019-02-19T04:23:14.495Z,99503.52
2019-02-19T04:25:50.359Z,99497.24
2019-02-19T04:28:27.333Z,99498.41
2019-02-19T04:31:03.200Z,99491.70
2019-02-19T04:33:39.039Z,99487.42
2019-02-19T04:36:14.900Z,99481.98
2019-02-19T04:38:50.747Z,99477.72
2019-02-19T04:41:26.611Z,99471.20
2019-02-19T04:44:02.453Z,99474.23
2019-02-19T04:46:38.305Z,99465.05
2019-02-19T04:49:14.175Z,99463.81
2019-02-19T04:51:50.019Z,99459.89
2019-02-19T04:54:25.873Z,99463.45
2019-02-19T04:57:01.624Z,99459.14
2019-02-19T04:59:37.490Z,99454.44
2019-02-19T05:02:13.326Z,99457.80
2019-02-19T05:04:49.200Z,99459.13
2019-02-19T05:07:25.043Z,99470.42
2019-02-19T05:10:00.788Z,99475.89
2019-02-19T05:12:36.654Z,99474.83
2019-02-19T05:15:12.509Z,99471.81
2019-02-19T05:17:48.352Z,99468.75
2019-02-19T05:20:24.085Z,99468.41
2019-02-19T05:23:00.270Z,99465.77
2019-02-19T05:25:36.121Z,99470.84
2019-02-19T05:28:13.003Z,99467.13
2019-02-19T05:30:49.153Z,99466.05
2019-02-19T05:33:24.952Z,99461.44
2019-02-19T05:36:00.878Z,99463.45
2019-02-19T05:38:36.619Z,99472.20
2019-02-19T05:41:12.476Z,99463.03
2019-02-19T05:43:48.230Z,99456.61
2019-02-19T05:46:24.088Z,99452.05
2019-02-19T05:48:59.945Z,99459.86
2019-02-19T05:51:35.785Z,99459.86
2019-02-19T05:54:11.647Z,99465.13
2019-02-19T05:56:47.504Z,99471.42
2019-02-19T05:59:23.358Z,99458.69
2019-02-19T06:01:59.521Z,99465.03
2019-02-19T06:04:35.424Z,99473.69
2019-02-19T06:07:11.172Z,99465.09
2019-02-19T06:09:47.483Z,99459.52
2019-02-19T06:12:23.340Z,99460.64
2019-02-19T06:14:59.394Z,99469.31
2019-02-19T06:17:35.249Z,99470.91
2019-02-19T06:20:11.303Z,99471.30
2019-02-19T06:22:47.173Z,99466.39
2019-02-19T06:25:23.025Z,99468.05
2019-02-19T06:27:58.866Z,99468.36
2019-02-19T06:30:34.724Z,99468.59
2019-02-19T06:33:10.573Z,99468.98
2019-02-19T06:35:46.447Z,99469.64
2019-02-19T06:38:22.313Z,99470.58
2019-02-19T06:40:58.139Z,99464.88
2019-02-19T06:43:34.302Z,99460.16
2019-02-19T06:46:11.188Z,99461.88
2019-02-19T06:48:46.926Z,99451.41
2019-02-19T06:51:22.787Z,99456.59
2019-02-19T06:53:58.862Z,99456.77
2019-02-19T06:56:40.968Z,99460.72
2019-02-19T06:59:25.916Z,99463.91
2019-02-19T07:02:21.740Z,99457.78
2019-02-19T07:04:57.887Z,99461.89
2019-02-19T07:07:33.648Z,99457.09
2019-02-19T07:10:18.822Z,99448.02
2019-02-19T07:12:54.570Z,99456.03
2019-02-19T07:15:30.431Z,99453.08
2019-02-19T07:18:06.286Z,99461.01
2019-02-19T07:20:42.138Z,99459.09
2019-02-19T07:23:17.989Z,99456.55
2019-02-19T07:25:54.046Z,99451.61
2019-02-19T07:28:30.921Z,99454.77
2019-02-19T07:31:06.781Z,99451.46
2019-02-19T07:33:42.632Z,99444.94
2019-02-19T07:36:18.379Z,99455.02
2019-02-19T07:38:54.243Z,99456.00
2019-02-19T07:41:30.029Z,99453.86
2019-02-19T07:44:05.835Z,99454.78
2019-02-19T07:46:41.697Z,99453.34
2019-02-19T07:49:17.439Z,99450.61
2019-02-19T07:51:53.299Z,99454.19
2019-02-19T07:54:29.160Z,99453.36
2019-02-19T07:57:05.006Z,99449.35
2019-02-19T07:59:40.866Z,99451.89
2019-02-19T08:02:16.724Z,99458.13
2019-02-19T08:04:52.567Z,99454.70
2019-02-19T08:07:28.735Z,99455.02
2019-02-19T08:10:07.959Z,99458.45
2019-02-19T08:12:43.823Z,99455.42
2019-02-19T08:15:19.680Z,99447.23
2019-02-19T08:17:55.541Z,99448.41
2019-02-19T08:20:31.384Z,99443.09
2019-02-19T08:23:07.167Z,99453.35
2019-02-19T08:25:42.985Z,99455.58
2019-02-19T08:28:18.842Z,99454.70
2019-02-19T08:30:54.691Z,99450.34
2019-02-19T08:33:30.543Z,99449.14
2019-02-19T08:36:07.744Z,99452.41
2019-02-19T08:38:43.594Z,99460.48
2019-02-19T08:41:19.441Z,99449.12
2019-02-19T08:43:55.298Z,99450.17
2019-02-19T08:46:31.497Z,99460.41
2019-02-19T08:49:07.313Z,99453.40
2019-02-19T08:51:43.084Z,99452.24
2019-02-19T08:54:18.917Z,99462.56
2019-02-19T08:56:54.778Z,99461.88
2019-02-19T08:59:30.628Z,99459.84
2019-02-19T09:02:06.481Z,99470.31
2019-02-19T09:04:42.242Z,99461.34
2019-02-19T09:07:19.227Z,99471.73
2019-02-19T09:09:55.782Z,99473.23
2019-02-19T09:12:31.641Z,99471.09
2019-02-19T09:15:11.241Z,99475.09
2019-02-19T09:17:51.938Z,99469.88
2019-02-19T09:20:24.730Z,99469.98
2019-02-19T09:23:00.983Z,99475.52
2019-02-19T09:25:37.967Z,99476.94
2019-02-19T09:28:13.819Z,99477.04
2019-02-19T09:30:49.682Z,99477.90
2019-02-19T09:33:25.421Z,99473.36
2019-02-19T09:36:02.418Z,99472.23
2019-02-19T09:38:38.266Z,99472.89
2019-02-19T09:41:14.127Z,99471.73
2019-02-19T09:43:49.970Z,99472.69
2019-02-19T09:46:25.835Z,99472.09
2019-02-19T09:49:01.693Z,99472.40
2019-02-19T09:51:37.539Z,99467.92
2019-02-19T09:54:13.392Z,99464.09
2019-02-19T09:56:49.253Z,99464.39
2019-02-19T09:59:25.098Z,99465.31
2019-02-19T10:02:00.957Z,99462.91
2019-02-19T10:04:36.813Z,99473.06
2019-02-19T10:07:12.672Z,99466.02
2019-02-19T10:09:48.522Z,99463.52
2019-02-19T10:12:25.496Z,99459.41
2019-02-19T10:15:01.444Z,99462.89
2019-02-19T10:17:37.516Z,99459.92
2019-02-19T10:20:14.553Z,99463.28
2019-02-19T10:22:50.451Z,99466.19
2019-02-19T10:25:26.293Z,99461.48
2019-02-19T10:28:02.159Z,99464.47
2019-02-19T10:30:38.009Z,99461.64
2019-02-19T10:33:13.967Z,99458.58
2019-02-19T10:35:49.812Z,99460.23
2019-02-19T10:38:25.684Z,99453.38
2019-02-19T10:41:01.526Z,99444.48
2019-02-19T10:43:37.374Z,99441.50
2019-02-19T10:46:13.234Z,99431.14
2019-02-19T10:48:49.195Z,99429.42
2019-02-19T10:51:25.255Z,99424.97
2019-02-19T10:54:01.105Z,99416.16
2019-02-19T10:56:36.956Z,99419.86
2019-02-19T10:59:13.023Z,99410.09
2019-02-19T11:01:48.871Z,99406.13
2019-02-19T11:04:24.734Z,99405.56
2019-02-19T11:07:00.581Z,99399.27
2019-02-19T11:09:36.494Z,99404.41
2019-02-19T11:12:12.391Z,99411.46
2019-02-19T11:14:48.241Z,99398.16
2019-02-19T11:17:24.149Z,99396.11
2019-02-19T11:19:59.944Z,99404.03
2019-02-19T11:22:35.981Z,99405.48
2019-02-19T11:25:12.881Z,99407.58
2019-02-19T11:27:48.741Z,99403.28
2019-02-19T11:30:24.604Z,99396.97
2019-02-19T11:33:00.453Z,99396.86
2019-02-19T11:35:37.318Z,99390.92
2019-02-19T11:38:13.070Z,99382.67
2019-02-19T11:40:48.928Z,99377.23
2019-02-19T11:43:24.788Z,99373.83
2019-02-19T11:46:00.640Z,99367.87
2019-02-19T11:48:37.125Z,99370.70
2019-02-19T11:51:13.275Z,99372.06
2019-02-19T11:53:49.527Z,99369.77
2019-02-19T11:56:25.392Z,99370.86
2019-02-19T11:59:01.246Z,99368.82
2019-02-19T12:01:40.370Z,99361.50
2019-02-19T12:04:19.027Z,99349.85
2019-02-19T12:06:55.158Z,99348.62
2019-02-19T12:09:31.237Z,99349.35
2019-02-19T12:12:07.065Z,99340.37
2019-02-19T12:14:42.800Z,99343.14
2019-02-19T12:17:18.669Z,99343.38
2019-02-19T12:19:54.630Z,99345.72
2019-02-19T12:22:30.588Z,99347.39
2019-02-19T12:25:08.075Z,99343.61
2019-02-19T12:27:44.020Z,99340.69
2019-02-19T12:30:28.253Z,99342.50
2019-02-19T12:33:05.573Z,99344.95
2019-02-19T12:35:41.422Z,99344.94
2019-02-19T12:38:17.299Z,99344.42
2019-02-19T12:40:53.131Z,99336.86
2019-02-19T12:43:28.991Z,99335.64
2019-02-19T12:46:04.841Z,99335.88
2019-02-19T12:48:40.683Z,99341.35
2019-02-19T12:51:16.551Z,99340.83
2019-02-19T12:53:52.404Z,99340.72
2019-02-19T12:56:28.258Z,99339.52
2019-02-19T12:59:04.114Z,99334.80
2019-02-19T13:01:39.974Z,99331.66
2019-02-19T13:04:15.820Z,99342.36
2019-02-19T13:06:51.665Z,99341.41
2019-02-19T13:09:27.527Z,99333.14
2019-02-19T13:12:03.277Z,99344.55
2019-02-19T13:14:40.150Z,99345.05
2019-02-19T13:17:16.004Z,99343.61
2019-02-19T13:19:51.862Z,99352.34
2019-02-19T13:22:27.722Z,99347.39
2019-02-19T13:25:03.573Z,99346.67
2019-02-19T13:27:39.321Z,99352.26
2019-02-19T13:30:16.957Z,99354.94
2019-02-19T13:32:52.766Z,99361.61
2019-02-19T13:35:28.615Z,99358.22
2019-02-19T13:38:04.790Z,99370.88
2019-02-19T13:40:40.647Z,99363.08
2019-02-19T13:43:16.493Z,99360.05
2019-02-19T13:45:52.526Z,99357.74
2019-02-19T13:48:28.307Z,99357.14
2019-02-19T13:51:08.867Z,99356.53
2019-02-19T13:53:46.367Z,99352.52
2019-02-19T13:56:22.223Z,99359.06
2019-02-19T13:58:58.060Z,99354.69
2019-02-19T14:01:33.912Z,99355.66
2019-02-19T14:04:09.774Z,99349.59
2019-02-19T14:06:45.626Z,99355.93
2019-02-19T14:09:21.472Z,99359.31
2019-02-19T14:11:57.334Z,99354.60
2019-02-19T14:14:38.389Z,99352.64
2019-02-19T14:17:14.375Z,99357.38
2019-02-19T14:19:52.173Z,99353.61
2019-02-19T14:22:29.667Z,99354.35
2019-02-19T14:25:25.490Z,99360.41
2019-02-19T14:28:19.260Z,99355.78
2019-02-19T14:31:06.164Z,99358.59
2019-02-19T14:33:49.426Z,99353.35
2019-02-19T14:36:43.275Z,99358.20
2019-02-19T14:39:37.667Z,99362.19
2019-02-19T14:42:26.933Z,99366.30
2019-02-19T14:45:10.557Z,99367.98
2019-02-19T14:47:53.995Z,99356.91
2019-02-19T14:50:31.497Z,99366.63
2019-02-19T14:53:08.877Z,99364.17
2019-02-19T14:55:55.594Z,99368.42
2019-02-19T14:58:48.135Z,99366.09
2019-02-19T15:01:44.876Z,99369.34
2019-02-19T15:04:22.272Z,99369.23
2019-02-19T15:07:02.415Z,99370.17
2019-02-19T15:09:39.812Z,99362.41
2019-02-19T15:12:20.989Z,99368.00
2019-02-19T15:15:01.141Z,99369.06
2019-02-19T15:17:39.766Z,99371.25
2019-02-19T15:20:19.930Z,99371.47
2019-02-19T15:23:00.071Z,99360.05
2019-02-19T15:25:46.878Z,99352.94
2019-02-19T15:28:42.503Z,99352.44
2019-02-19T15:31:19.886Z,99349.00
2019-02-19T15:34:15.816Z,99350.75
2019-02-19T15:36:59.460Z,99351.41
2019-02-19T15:39:52.821Z,99345.44
2019-02-19T15:42:36.243Z,99338.52
2019-02-19T15:45:16.918Z,99347.91
2019-02-19T15:48:00.156Z,99343.13
2019-02-19T15:50:55.965Z,99341.77
2019-02-19T15:53:39.702Z,99343.38
2019-02-19T15:56:33.267Z,99346.78
2019-02-19T15:59:22.950Z,99343.91
2019-02-19T16:02:00.452Z,99347.11
2019-02-19T16:04:56.059Z,99340.71
2019-02-19T16:07:36.110Z,99339.82
2019-02-19T16:10:28.753Z,99346.61
2019-02-19T16:13:07.283Z,99348.02
2019-02-19T16:16:01.479Z,99343.48
2019-02-19T16:18:46.622Z,99345.80
2019-02-19T16:21:40.836Z,99357.93
2019-02-19T16:24:26.397Z,99357.60
2019-02-19T16:27:04.203Z,99359.05
2019-02-19T16:29:46.407Z,99364.40
2019-02-19T16:32:41.397Z,99361.09
2019-02-19T16:35:28.601Z,99372.52
2019-02-19T16:38:06.740Z,99369.20
2019-02-19T16:40:47.197Z,99374.97
2019-02-19T16:43:24.683Z,99374.91
2019-02-19T16:46:02.081Z,99379.81
2019-02-19T16:48:56.484Z,99380.21
2019-02-19T16:51:45.680Z,99383.92
2019-02-19T16:54:23.050Z,99392.57
2019-02-19T16:57:00.420Z,99392.38
2019-02-19T16:59:54.074Z,99389.72
2019-02-19T17:02:34.200Z,99389.89
2019-02-19T17:05:23.573Z,99392.60
2019-02-19T17:08:00.953Z,99389.84
2019-02-19T17:10:38.883Z,99390.69
2019-02-19T17:13:16.292Z,99392.50
2019-02-19T17:15:59.490Z,99391.73
2019-02-19T17:18:48.773Z,99394.88
2019-02-19T17:21:41.959Z,99389.56
2019-02-19T17:24:20.351Z,99390.32
2019-02-19T17:27:09.800Z,99392.69
2019-02-19T17:29:47.174Z,99392.70
2019-02-19T17:32:30.189Z,99393.83
2019-02-19T17:35:08.792Z,99390.41
2019-02-19T17:37:55.373Z,99392.42
2019-02-19T17:40:35.524Z,99395.92
2019-02-19T17:43:15.979Z,99394.67
2019-02-19T17:45:59.415Z,99398.09
2019-02-19T17:48:51.849Z,99400.09
2019-02-19T17:51:32.119Z,99397.25
2019-02-19T17:54:15.344Z,99398.78
2019-02-19T17:56:55.794Z,99394.88
2019-02-19T17:59:39.568Z,99392.70
2019-02-19T18:02:16.933Z,99401.16
2019-02-19T18:04:54.312Z,99395.84
2019-02-19T18:07:46.772Z,99401.53
2019-02-19T18:10:27.022Z,99400.19
2019-02-19T18:13:16.480Z,99408.44
2019-02-19T18:15:53.853Z,99408.36
2019-02-19T18:18:31.136Z,99407.03
2019-02-19T18:21:07.247Z,99417.18
2019-02-19T18:23:42.956Z,99422.59
2019-02-19T18:26:18.696Z,99411.77
2019-02-19T18:28:54.470Z,99414.32
2019-02-19T18:31:30.243Z,99419.76
2019-02-19T18:34:06.005Z,99413.67
2019-02-19T18:36:41.803Z,99421.37
2019-02-19T18:39:17.628Z,99432.10
2019-02-19T18:41:53.396Z,99425.38
2019-02-19T18:44:29.169Z,99434.49
2019-02-19T18:47:04.928Z,99443.44
2019-02-19T18:49:40.846Z,99472.88
2019-02-19T18:52:16.595Z,99468.98
2019-02-19T18:54:52.943Z,99460.80
2019-02-19T18:57:28.718Z,99489.83
2019-02-19T19:00:07.005Z,99484.78
2019-02-19T19:02:42.932Z,99492.92
2019-02-19T19:05:18.685Z,99493.56
2019-02-19T19:07:54.458Z,99496.27
2019-02-19T19:10:30.218Z,99525.98
2019-02-19T19:13:05.985Z,99510.57
2019-02-19T19:15:41.781Z,99517.64
2019-02-19T19:18:19.229Z,99539.53
2019-02-19T19:20:55.202Z,99542.20
2019-02-19T19:23:30.961Z,99541.77
2019-02-19T19:26:06.745Z,99536.39
2019-02-19T19:28:42.524Z,99538.25
2019-02-19T19:31:18.287Z,99555.50
2019-02-19T19:33:54.029Z,99555.78
2019-02-19T19:36:29.758Z,99561.87
2019-02-19T19:39:06.299Z,99559.73
2019-02-19T19:41:43.630Z,99553.64
2019-02-19T19:44:19.381Z,99565.28
2019-02-19T19:46:55.187Z,99562.02
2019-02-19T19:49:30.916Z,99557.66
2019-02-19T19:52:06.921Z,99571.44
2019-02-19T19:54:42.674Z,99571.20
2019-02-19T19:57:18.426Z,99568.64
2019-02-19T19:59:54.198Z,99570.67
2019-02-19T20:02:29.987Z,99570.83
2019-02-19T20:05:08.403Z,99556.16
2019-02-19T20:07:44.287Z,99550.64
2019-02-19T20:10:20.188Z,99546.98
2019-02-19T20:12:56.002Z,99551.98
2019-02-19T20:15:31.782Z,99550.56
2019-02-19T20:18:07.568Z,99546.05
2019-02-19T20:20:43.331Z,99544.08
2019-02-19T20:23:19.082Z,99549.62
2019-02-19T20:25:54.840Z,99546.50
2019-02-19T20:28:30.628Z,99544.63
2019-02-19T20:31:06.390Z,99553.19
2019-02-19T20:33:42.176Z,99554.55
2019-02-19T20:36:18.137Z,99563.34
2019-02-19T20:38:53.885Z,99566.70
2019-02-19T20:41:29.691Z,99570.97
2019-02-19T20:44:05.504Z,99580.63
2019-02-19T20:46:41.378Z,99575.12
2019-02-19T20:49:17.270Z,99573.48
2019-02-19T20:51:53.678Z,99578.53
2019-02-19T20:54:30.071Z,99573.61
2019-02-19T20:57:06.330Z,99575.50
2019-02-19T20:59:42.182Z,99583.89
2019-02-19T21:02:18.036Z,99570.83
2019-02-19T21:04:53.934Z,99567.61
2019-02-19T21:07:29.730Z,99582.19
2019-02-19T21:10:16.529Z,99577.37
2019-02-19T21:12:52.337Z,99579.70
2019-02-19T21:15:28.336Z,99586.86
2019-02-19T21:18:04.127Z,99577.84
2019-02-19T21:20:40.203Z,99575.32
2019-02-19T21:23:16.568Z,99578.91
2019-02-19T21:25:52.513Z,99582.10
2019-02-19T21:28:28.577Z,99579.23
2019-02-19T21:31:04.538Z,99581.41
2019-02-19T21:33:40.391Z,99579.61
2019-02-19T21:36:16.240Z,99581.09
2019-02-19T21:38:52.556Z,99578.20
2019-02-19T21:41:28.462Z,99587.14
2019-02-19T21:44:04.315Z,99590.02
2019-02-19T21:46:41.254Z,99585.78
2019-02-19T21:49:17.142Z,99588.27
2019-02-19T21:51:54.369Z,99587.22
2019-02-19T21:54:30.289Z,99584.83
2019-02-19T21:57:06.080Z,99578.79
2019-02-19T21:59:42.114Z,99580.38
2019-02-19T22:02:17.959Z,99586.51
2019-02-19T22:04:54.024Z,99583.42
2019-02-19T22:07:29.869Z,99588.33
2019-02-19T22:10:08.793Z,99578.76
2019-02-19T22:12:44.744Z,99582.78
2019-02-19T22:15:20.626Z,99581.98
2019-02-19T22:17:56.461Z,99584.63
2019-02-19T22:20:36.816Z,99582.08
2019-02-19T22:23:12.664Z,99585.31
2019-02-19T22:25:49.591Z,99575.88
2019-02-19T22:28:25.866Z,99579.47
2019-02-19T22:31:01.676Z,99577.73
2019-02-19T22:33:38.646Z,99577.41
2019-02-19T22:36:14.503Z,99580.99
2019-02-19T22:38:50.275Z,99578.20
2019-02-19T22:41:25.999Z,99581.78
2019-02-19T22:44:01.987Z,99574.37
2019-02-19T22:46:37.824Z,99573.06
2019-02-19T22:49:14.689Z,99576.76
2019-02-19T22:51:50.540Z,99580.34
2019-02-19T22:54:27.949Z,99585.77
2019-02-19T22:57:04.816Z,99579.84
2019-02-19T22:59:40.671Z,99580.36
2019-02-19T23:02:16.636Z,99580.62
2019-02-19T23:04:52.778Z,99588.42
2019-02-19T23:07:28.640Z,99594.75
2019-02-19T23:10:05.769Z,99583.58
2019-02-19T23:12:41.570Z,99588.95
2019-02-19T23:15:17.436Z,99596.27
2019-02-19T23:17:53.380Z,99589.20
2019-02-19T23:20:29.235Z,99594.81
2019-02-19T23:23:05.309Z,99600.27
2019-02-19T23:25:41.156Z,99588.20
2019-02-19T23:28:17.819Z,99593.14
2019-02-19T23:30:53.570Z,99599.41
2019-02-19T23:33:29.447Z,99591.73
2019-02-19T23:36:12.666Z,99599.06
2019-02-19T23:38:48.524Z,99602.03
2019-02-19T23:41:24.374Z,99601.70
2019-02-19T23:44:00.215Z,99601.03
2019-02-19T23:46:37.112Z,99609.84
2019-02-19T23:49:12.841Z,99600.36
2019-02-19T23:51:48.907Z,99602.19
2019-02-19T23:54:24.764Z,99602.33
2019-02-19T23:57:00.627Z,99611.09
2019-02-19T23:59:36.472Z,99604.55
